sensor_id;sensor_type;location;lat;lon;timestamp;temperature;humidity
54126;DHT22;40360;52.992;6.796;2024-03-22T00:01:15;9.60;99.90
54126;DHT22;40360;52.992;6.796;2024-03-22T00:03:41;9.70;99.90
54126;DHT22;40360;52.992;6.796;2024-03-22T00:06:09;9.70;99.90
54126;DHT22;40360;52.992;6.796;2024-03-22T00:08:38;9.70;99.90
54126;DHT22;40360;52.992;6.796;2024-03-22T00:11:17;9.70;99.90
54126;DHT22;40360;52.992;6.796;2024-03-22T00:14:00;9.70;99.90
54126;DHT22;40360;52.992;6.796;2024-03-22T00:16:27;9.70;99.90
54126;DHT22;40360;52.992;6.796;2024-03-22T00:18:55;9.70;99.90
54126;DHT22;40360;52.992;6.796;2024-03-22T00:21:22;9.70;99.90
54126;DHT22;40360;52.992;6.796;2024-03-22T00:23:49;9.80;99.90
54126;DHT22;40360;52.992;6.796;2024-03-22T00:26:15;9.80;99.90
54126;DHT22;40360;52.992;6.796;2024-03-22T00:28:41;9.80;99.90
54126;DHT22;40360;52.992;6.796;2024-03-22T00:31:09;9.80;99.90
54126;DHT22;40360;52.992;6.796;2024-03-22T00:33:36;9.80;99.90
54126;DHT22;40360;52.992;6.796;2024-03-22T00:36:33;9.80;99.90
54126;DHT22;40360;52.992;6.796;2024-03-22T00:39:04;9.90;99.90
54126;DHT22;40360;52.992;6.796;2024-03-22T00:41:34;9.90;99.90
54126;DHT22;40360;52.992;6.796;2024-03-22T00:44:02;9.90;99.90
54126;DHT22;40360;52.992;6.796;2024-03-22T00:46:33;9.90;99.90
54126;DHT22;40360;52.992;6.796;2024-03-22T00:49:03;9.90;99.90
54126;DHT22;40360;52.992;6.796;2024-03-22T00:51:37;9.90;99.90
54126;DHT22;40360;52.992;6.796;2024-03-22T00:54:03;9.90;99.90
54126;DHT22;40360;52.992;6.796;2024-03-22T00:56:35;9.90;99.90
54126;DHT22;40360;52.992;6.796;2024-03-22T00:59:05;9.90;99.90
54126;DHT22;40360;52.992;6.796;2024-03-22T01:01:32;10.00;99.90
54126;DHT22;40360;52.992;6.796;2024-03-22T01:03:59;10.00;99.90
54126;DHT22;40360;52.992;6.796;2024-03-22T01:06:26;10.00;99.90
54126;DHT22;40360;52.992;6.796;2024-03-22T01:08:58;10.00;99.90
54126;DHT22;40360;52.992;6.796;2024-03-22T01:11:26;10.00;99.90
54126;DHT22;40360;52.992;6.796;2024-03-22T01:13:55;10.00;99.90
54126;DHT22;40360;52.992;6.796;2024-03-22T01:16:25;10.00;99.90
54126;DHT22;40360;52.992;6.796;2024-03-22T01:18:55;10.00;99.90
54126;DHT22;40360;52.992;6.796;2024-03-22T01:21:25;10.00;99.90
54126;DHT22;40360;52.992;6.796;2024-03-22T01:23:54;10.00;99.90
54126;DHT22;40360;52.992;6.796;2024-03-22T01:26:22;10.00;99.90
54126;DHT22;40360;52.992;6.796;2024-03-22T01:28:48;10.00;99.90
54126;DHT22;40360;52.992;6.796;2024-03-22T01:31:17;10.00;99.90
54126;DHT22;40360;52.992;6.796;2024-03-22T01:33:43;10.00;99.90
54126;DHT22;40360;52.992;6.796;2024-03-22T01:36:13;10.10;99.90
54126;DHT22;40360;52.992;6.796;2024-03-22T01:38:39;10.10;99.90
54126;DHT22;40360;52.992;6.796;2024-03-22T01:41:06;10.10;99.90
54126;DHT22;40360;52.992;6.796;2024-03-22T01:43:42;10.20;99.90
54126;DHT22;40360;52.992;6.796;2024-03-22T01:46:18;10.20;99.90
54126;DHT22;40360;52.992;6.796;2024-03-22T01:48:47;10.20;99.90
54126;DHT22;40360;52.992;6.796;2024-03-22T01:51:14;10.20;99.90
54126;DHT22;40360;52.992;6.796;2024-03-22T01:53:41;10.30;99.90
54126;DHT22;40360;52.992;6.796;2024-03-22T01:56:10;10.30;99.90
54126;DHT22;40360;52.992;6.796;2024-03-22T01:58:39;10.30;99.90
54126;DHT22;40360;52.992;6.796;2024-03-22T02:01:07;10.30;99.90
54126;DHT22;40360;52.992;6.796;2024-03-22T02:03:35;10.30;99.90
54126;DHT22;40360;52.992;6.796;2024-03-22T02:06:02;10.30;99.90
54126;DHT22;40360;52.992;6.796;2024-03-22T02:08:32;10.30;99.90
54126;DHT22;40360;52.992;6.796;2024-03-22T02:11:03;10.30;99.90
54126;DHT22;40360;52.992;6.796;2024-03-22T02:13:31;10.40;99.90
54126;DHT22;40360;52.992;6.796;2024-03-22T02:15:57;10.40;99.90
54126;DHT22;40360;52.992;6.796;2024-03-22T02:18:23;10.50;99.90
54126;DHT22;40360;52.992;6.796;2024-03-22T02:20:49;10.50;99.90
54126;DHT22;40360;52.992;6.796;2024-03-22T02:23:16;10.50;99.90
54126;DHT22;40360;52.992;6.796;2024-03-22T02:25:43;10.50;99.90
54126;DHT22;40360;52.992;6.796;2024-03-22T02:28:10;10.60;99.90
54126;DHT22;40360;52.992;6.796;2024-03-22T02:30:36;10.60;99.90
54126;DHT22;40360;52.992;6.796;2024-03-22T02:33:03;10.50;99.90
54126;DHT22;40360;52.992;6.796;2024-03-22T02:35:30;10.50;99.90
54126;DHT22;40360;52.992;6.796;2024-03-22T02:37:57;10.60;99.90
54126;DHT22;40360;52.992;6.796;2024-03-22T02:40:25;10.60;99.90
54126;DHT22;40360;52.992;6.796;2024-03-22T02:42:52;10.60;99.90
54126;DHT22;40360;52.992;6.796;2024-03-22T02:45:19;10.60;99.90
54126;DHT22;40360;52.992;6.796;2024-03-22T02:47:47;10.50;99.90
54126;DHT22;40360;52.992;6.796;2024-03-22T02:50:14;10.50;99.90
54126;DHT22;40360;52.992;6.796;2024-03-22T02:52:49;10.50;99.90
54126;DHT22;40360;52.992;6.796;2024-03-22T02:55:18;10.50;99.90
54126;DHT22;40360;52.992;6.796;2024-03-22T02:57:45;10.50;99.90
54126;DHT22;40360;52.992;6.796;2024-03-22T03:00:13;10.50;99.90
54126;DHT22;40360;52.992;6.796;2024-03-22T03:03:06;10.50;99.90
54126;DHT22;40360;52.992;6.796;2024-03-22T03:05:33;10.60;99.90
54126;DHT22;40360;52.992;6.796;2024-03-22T03:08:02;10.60;99.90
54126;DHT22;40360;52.992;6.796;2024-03-22T03:10:31;10.60;99.90
54126;DHT22;40360;52.992;6.796;2024-03-22T03:12:58;10.60;99.90
54126;DHT22;40360;52.992;6.796;2024-03-22T03:15:24;10.60;99.90
54126;DHT22;40360;52.992;6.796;2024-03-22T03:17:50;10.60;99.90
54126;DHT22;40360;52.992;6.796;2024-03-22T03:20:19;10.60;99.90
54126;DHT22;40360;52.992;6.796;2024-03-22T03:22:54;10.60;99.90
54126;DHT22;40360;52.992;6.796;2024-03-22T03:25:26;10.60;99.90
54126;DHT22;40360;52.992;6.796;2024-03-22T03:27:54;10.60;99.90
54126;DHT22;40360;52.992;6.796;2024-03-22T03:30:45;10.60;99.90
54126;DHT22;40360;52.992;6.796;2024-03-22T03:33:13;10.60;99.90
54126;DHT22;40360;52.992;6.796;2024-03-22T03:35:46;10.60;99.90
54126;DHT22;40360;52.992;6.796;2024-03-22T03:38:14;10.60;99.90
54126;DHT22;40360;52.992;6.796;2024-03-22T03:40:42;10.60;99.90
54126;DHT22;40360;52.992;6.796;2024-03-22T03:43:14;10.60;99.90
54126;DHT22;40360;52.992;6.796;2024-03-22T03:45:45;10.60;99.90
54126;DHT22;40360;52.992;6.796;2024-03-22T03:48:15;10.60;99.90
54126;DHT22;40360;52.992;6.796;2024-03-22T03:50:56;10.60;99.90
54126;DHT22;40360;52.992;6.796;2024-03-22T03:53:30;10.60;99.90
54126;DHT22;40360;52.992;6.796;2024-03-22T03:55:57;10.60;99.90
54126;DHT22;40360;52.992;6.796;2024-03-22T03:58:24;10.60;99.90
54126;DHT22;40360;52.992;6.796;2024-03-22T04:00:54;10.60;99.90
54126;DHT22;40360;52.992;6.796;2024-03-22T04:03:25;10.60;99.90
54126;DHT22;40360;52.992;6.796;2024-03-22T04:05:57;10.70;99.90
54126;DHT22;40360;52.992;6.796;2024-03-22T04:08:25;10.70;99.90
54126;DHT22;40360;52.992;6.796;2024-03-22T04:10:53;10.60;99.90
54126;DHT22;40360;52.992;6.796;2024-03-22T04:13:24;10.70;99.90
54126;DHT22;40360;52.992;6.796;2024-03-22T04:15:52;10.70;99.90
54126;DHT22;40360;52.992;6.796;2024-03-22T04:18:21;10.70;99.90
54126;DHT22;40360;52.992;6.796;2024-03-22T04:20:57;10.70;99.90
54126;DHT22;40360;52.992;6.796;2024-03-22T04:23:25;10.70;99.90
54126;DHT22;40360;52.992;6.796;2024-03-22T04:28:26;10.70;99.90
54126;DHT22;40360;52.992;6.796;2024-03-22T04:33:30;10.80;99.90
54126;DHT22;40360;52.992;6.796;2024-03-22T04:35:58;10.70;99.90
54126;DHT22;40360;52.992;6.796;2024-03-22T04:38:29;10.70;99.90
54126;DHT22;40360;52.992;6.796;2024-03-22T04:40:59;10.70;99.90
54126;DHT22;40360;52.992;6.796;2024-03-22T04:43:28;10.70;99.90
54126;DHT22;40360;52.992;6.796;2024-03-22T04:45:58;10.70;99.90
54126;DHT22;40360;52.992;6.796;2024-03-22T04:48:25;10.70;99.90
54126;DHT22;40360;52.992;6.796;2024-03-22T04:50:53;10.70;99.90
54126;DHT22;40360;52.992;6.796;2024-03-22T04:53:26;10.70;99.90
54126;DHT22;40360;52.992;6.796;2024-03-22T04:55:56;10.70;99.90
54126;DHT22;40360;52.992;6.796;2024-03-22T04:58:25;10.70;99.90
54126;DHT22;40360;52.992;6.796;2024-03-22T05:00:57;10.70;99.90
54126;DHT22;40360;52.992;6.796;2024-03-22T05:03:24;10.70;99.90
54126;DHT22;40360;52.992;6.796;2024-03-22T05:05:51;10.70;99.90
54126;DHT22;40360;52.992;6.796;2024-03-22T05:08:21;10.70;99.90
54126;DHT22;40360;52.992;6.796;2024-03-22T05:10:51;10.60;99.90
54126;DHT22;40360;52.992;6.796;2024-03-22T05:13:21;10.60;99.90
54126;DHT22;40360;52.992;6.796;2024-03-22T05:15:50;10.70;99.90
54126;DHT22;40360;52.992;6.796;2024-03-22T05:18:16;10.60;99.90
54126;DHT22;40360;52.992;6.796;2024-03-22T05:20:43;10.60;99.90
54126;DHT22;40360;52.992;6.796;2024-03-22T05:23:13;10.70;99.90
54126;DHT22;40360;52.992;6.796;2024-03-22T05:25:40;10.60;99.90
54126;DHT22;40360;52.992;6.796;2024-03-22T05:28:10;10.60;99.90
54126;DHT22;40360;52.992;6.796;2024-03-22T05:30:38;10.60;99.90
54126;DHT22;40360;52.992;6.796;2024-03-22T05:33:05;10.60;99.90
54126;DHT22;40360;52.992;6.796;2024-03-22T05:35:34;10.60;99.90
54126;DHT22;40360;52.992;6.796;2024-03-22T05:38:04;10.50;99.90
54126;DHT22;40360;52.992;6.796;2024-03-22T05:40:31;10.50;99.90
54126;DHT22;40360;52.992;6.796;2024-03-22T05:42:57;10.50;99.90
54126;DHT22;40360;52.992;6.796;2024-03-22T05:45:27;10.50;99.90
54126;DHT22;40360;52.992;6.796;2024-03-22T05:47:55;10.50;99.90
54126;DHT22;40360;52.992;6.796;2024-03-22T05:50:22;10.50;99.90
54126;DHT22;40360;52.992;6.796;2024-03-22T05:52:53;10.40;99.90
54126;DHT22;40360;52.992;6.796;2024-03-22T05:55:20;10.40;99.90
54126;DHT22;40360;52.992;6.796;2024-03-22T05:57:47;10.40;99.90
54126;DHT22;40360;52.992;6.796;2024-03-22T06:00:17;10.40;99.90
54126;DHT22;40360;52.992;6.796;2024-03-22T06:02:44;10.40;99.90
54126;DHT22;40360;52.992;6.796;2024-03-22T06:05:10;10.40;99.90
54126;DHT22;40360;52.992;6.796;2024-03-22T06:07:37;10.20;99.90
54126;DHT22;40360;52.992;6.796;2024-03-22T06:10:09;10.30;99.90
54126;DHT22;40360;52.992;6.796;2024-03-22T06:12:39;10.30;99.90
54126;DHT22;40360;52.992;6.796;2024-03-22T06:15:07;10.30;99.90
54126;DHT22;40360;52.992;6.796;2024-03-22T06:17:35;10.30;99.90
54126;DHT22;40360;52.992;6.796;2024-03-22T06:20:02;10.30;99.90
54126;DHT22;40360;52.992;6.796;2024-03-22T06:22:31;10.30;99.90
54126;DHT22;40360;52.992;6.796;2024-03-22T06:24:59;10.30;99.90
54126;DHT22;40360;52.992;6.796;2024-03-22T06:27:34;10.30;99.90
54126;DHT22;40360;52.992;6.796;2024-03-22T06:30:33;10.30;99.90
54126;DHT22;40360;52.992;6.796;2024-03-22T06:33:08;10.30;99.90
54126;DHT22;40360;52.992;6.796;2024-03-22T06:35:52;10.30;99.90
54126;DHT22;40360;52.992;6.796;2024-03-22T06:38:20;10.30;99.90
54126;DHT22;40360;52.992;6.796;2024-03-22T06:40:45;10.20;99.90
54126;DHT22;40360;52.992;6.796;2024-03-22T06:43:12;10.20;99.90
54126;DHT22;40360;52.992;6.796;2024-03-22T06:45:39;10.20;99.90
54126;DHT22;40360;52.992;6.796;2024-03-22T06:48:06;10.20;99.90
54126;DHT22;40360;52.992;6.796;2024-03-22T06:50:33;10.20;99.90
54126;DHT22;40360;52.992;6.796;2024-03-22T06:53:03;10.20;99.90
54126;DHT22;40360;52.992;6.796;2024-03-22T06:55:31;10.20;99.90
54126;DHT22;40360;52.992;6.796;2024-03-22T06:58:01;10.20;99.90
54126;DHT22;40360;52.992;6.796;2024-03-22T07:00:29;10.20;99.90
54126;DHT22;40360;52.992;6.796;2024-03-22T07:02:56;10.20;99.90
54126;DHT22;40360;52.992;6.796;2024-03-22T07:05:24;10.20;99.90
54126;DHT22;40360;52.992;6.796;2024-03-22T07:07:50;10.20;99.90
54126;DHT22;40360;52.992;6.796;2024-03-22T07:10:22;10.20;99.90
54126;DHT22;40360;52.992;6.796;2024-03-22T07:12:50;10.20;99.90
54126;DHT22;40360;52.992;6.796;2024-03-22T07:15:21;10.20;99.90
54126;DHT22;40360;52.992;6.796;2024-03-22T07:17:50;10.30;99.90
54126;DHT22;40360;52.992;6.796;2024-03-22T07:20:18;10.30;99.90
54126;DHT22;40360;52.992;6.796;2024-03-22T07:22:45;10.30;99.90
54126;DHT22;40360;52.992;6.796;2024-03-22T07:25:12;10.30;99.90
54126;DHT22;40360;52.992;6.796;2024-03-22T07:27:40;10.30;99.90
54126;DHT22;40360;52.992;6.796;2024-03-22T07:30:07;10.30;99.90
54126;DHT22;40360;52.992;6.796;2024-03-22T07:32:34;10.30;99.90
54126;DHT22;40360;52.992;6.796;2024-03-22T07:35:04;10.30;99.90
54126;DHT22;40360;52.992;6.796;2024-03-22T07:37:31;10.30;99.90
54126;DHT22;40360;52.992;6.796;2024-03-22T07:40:02;10.30;99.90
54126;DHT22;40360;52.992;6.796;2024-03-22T07:42:29;10.30;99.90
54126;DHT22;40360;52.992;6.796;2024-03-22T07:44:56;10.30;99.90
54126;DHT22;40360;52.992;6.796;2024-03-22T07:47:22;10.30;99.90
54126;DHT22;40360;52.992;6.796;2024-03-22T07:49:50;10.30;99.90
54126;DHT22;40360;52.992;6.796;2024-03-22T07:52:18;10.30;99.90
54126;DHT22;40360;52.992;6.796;2024-03-22T07:54:47;10.40;99.90
54126;DHT22;40360;52.992;6.796;2024-03-22T07:57:14;10.40;99.90
54126;DHT22;40360;52.992;6.796;2024-03-22T07:59:41;10.40;99.90
54126;DHT22;40360;52.992;6.796;2024-03-22T08:02:11;10.40;99.90
54126;DHT22;40360;52.992;6.796;2024-03-22T08:04:39;10.30;99.90
54126;DHT22;40360;52.992;6.796;2024-03-22T08:07:15;10.30;99.90
54126;DHT22;40360;52.992;6.796;2024-03-22T08:09:45;10.30;99.90
54126;DHT22;40360;52.992;6.796;2024-03-22T08:12:12;10.30;99.90
54126;DHT22;40360;52.992;6.796;2024-03-22T08:14:38;10.30;99.90
54126;DHT22;40360;52.992;6.796;2024-03-22T08:17:08;10.30;99.90
54126;DHT22;40360;52.992;6.796;2024-03-22T08:19:37;10.20;99.90
54126;DHT22;40360;52.992;6.796;2024-03-22T08:22:03;10.20;99.90
54126;DHT22;40360;52.992;6.796;2024-03-22T08:24:29;10.20;99.90
54126;DHT22;40360;52.992;6.796;2024-03-22T08:26:59;10.20;99.90
54126;DHT22;40360;52.992;6.796;2024-03-22T08:29:25;10.20;99.90
54126;DHT22;40360;52.992;6.796;2024-03-22T08:31:54;10.10;99.90
54126;DHT22;40360;52.992;6.796;2024-03-22T08:34:21;10.10;99.90
54126;DHT22;40360;52.992;6.796;2024-03-22T08:36:49;10.10;99.90
54126;DHT22;40360;52.992;6.796;2024-03-22T08:39:16;10.10;99.90
54126;DHT22;40360;52.992;6.796;2024-03-22T08:41:41;10.10;99.90
54126;DHT22;40360;52.992;6.796;2024-03-22T08:44:08;10.10;99.90
54126;DHT22;40360;52.992;6.796;2024-03-22T09:02:36;10.10;99.90
54126;DHT22;40360;52.992;6.796;2024-03-22T09:05:05;10.10;99.90
54126;DHT22;40360;52.992;6.796;2024-03-22T09:07:31;10.00;99.90
54126;DHT22;40360;52.992;6.796;2024-03-22T09:09:58;10.10;99.90
54126;DHT22;40360;52.992;6.796;2024-03-22T09:12:25;10.10;99.90
54126;DHT22;40360;52.992;6.796;2024-03-22T09:14:53;10.10;99.90
54126;DHT22;40360;52.992;6.796;2024-03-22T09:17:20;10.10;99.90
54126;DHT22;40360;52.992;6.796;2024-03-22T09:19:53;10.10;99.90
54126;DHT22;40360;52.992;6.796;2024-03-22T09:22:24;10.10;99.90
54126;DHT22;40360;52.992;6.796;2024-03-22T09:24:51;10.10;99.90
54126;DHT22;40360;52.992;6.796;2024-03-22T09:27:22;10.10;99.90
54126;DHT22;40360;52.992;6.796;2024-03-22T09:29:49;10.10;99.90
54126;DHT22;40360;52.992;6.796;2024-03-22T09:32:16;10.20;99.90
54126;DHT22;40360;52.992;6.796;2024-03-22T09:34:43;10.10;99.90
54126;DHT22;40360;52.992;6.796;2024-03-22T09:37:12;10.20;99.90
54126;DHT22;40360;52.992;6.796;2024-03-22T09:39:39;10.20;99.90
54126;DHT22;40360;52.992;6.796;2024-03-22T09:42:06;10.20;99.90
54126;DHT22;40360;52.992;6.796;2024-03-22T09:44:38;10.20;99.90
54126;DHT22;40360;52.992;6.796;2024-03-22T09:47:08;10.20;99.90
54126;DHT22;40360;52.992;6.796;2024-03-22T09:49:34;10.20;99.90
54126;DHT22;40360;52.992;6.796;2024-03-22T09:52:04;10.20;99.90
54126;DHT22;40360;52.992;6.796;2024-03-22T09:54:31;10.20;99.90
54126;DHT22;40360;52.992;6.796;2024-03-22T09:56:58;10.20;99.90
54126;DHT22;40360;52.992;6.796;2024-03-22T09:59:25;10.20;99.90
54126;DHT22;40360;52.992;6.796;2024-03-22T10:01:52;10.20;99.90
54126;DHT22;40360;52.992;6.796;2024-03-22T10:04:19;10.20;99.90
54126;DHT22;40360;52.992;6.796;2024-03-22T10:06:47;10.20;99.90
54126;DHT22;40360;52.992;6.796;2024-03-22T10:09:15;10.20;99.90
54126;DHT22;40360;52.992;6.796;2024-03-22T10:11:44;10.20;99.90
54126;DHT22;40360;52.992;6.796;2024-03-22T10:14:15;10.20;99.90
54126;DHT22;40360;52.992;6.796;2024-03-22T10:16:42;10.30;99.90
54126;DHT22;40360;52.992;6.796;2024-03-22T10:19:13;10.20;99.90
54126;DHT22;40360;52.992;6.796;2024-03-22T10:22:02;10.30;99.90
54126;DHT22;40360;52.992;6.796;2024-03-22T10:24:29;10.20;99.90
54126;DHT22;40360;52.992;6.796;2024-03-22T10:26:59;10.20;99.90
54126;DHT22;40360;52.992;6.796;2024-03-22T10:29:28;10.30;99.90
54126;DHT22;40360;52.992;6.796;2024-03-22T10:31:55;10.30;99.90
54126;DHT22;40360;52.992;6.796;2024-03-22T10:34:24;10.30;99.90
54126;DHT22;40360;52.992;6.796;2024-03-22T10:36:50;10.30;99.90
54126;DHT22;40360;52.992;6.796;2024-03-22T10:39:25;10.20;99.90
54126;DHT22;40360;52.992;6.796;2024-03-22T10:41:52;10.20;99.90
54126;DHT22;40360;52.992;6.796;2024-03-22T10:44:23;10.30;99.90
54126;DHT22;40360;52.992;6.796;2024-03-22T10:46:55;10.30;99.90
54126;DHT22;40360;52.992;6.796;2024-03-22T10:49:22;10.30;99.90
54126;DHT22;40360;52.992;6.796;2024-03-22T10:51:58;10.30;99.90
54126;DHT22;40360;52.992;6.796;2024-03-22T10:54:39;10.30;99.90
54126;DHT22;40360;52.992;6.796;2024-03-22T10:57:10;10.30;99.90
54126;DHT22;40360;52.992;6.796;2024-03-22T10:59:42;10.30;99.90
54126;DHT22;40360;52.992;6.796;2024-03-22T11:02:12;10.30;99.90
54126;DHT22;40360;52.992;6.796;2024-03-22T11:04:40;10.30;99.90
54126;DHT22;40360;52.992;6.796;2024-03-22T11:07:20;10.30;99.90
54126;DHT22;40360;52.992;6.796;2024-03-22T11:09:53;10.40;99.90
54126;DHT22;40360;52.992;6.796;2024-03-22T11:12:25;10.50;99.90
54126;DHT22;40360;52.992;6.796;2024-03-22T11:14:56;10.50;99.90
54126;DHT22;40360;52.992;6.796;2024-03-22T11:17:23;10.60;99.90
54126;DHT22;40360;52.992;6.796;2024-03-22T11:19:57;10.60;99.90
54126;DHT22;40360;52.992;6.796;2024-03-22T11:22:28;10.60;99.90
54126;DHT22;40360;52.992;6.796;2024-03-22T11:24:54;10.50;99.90
54126;DHT22;40360;52.992;6.796;2024-03-22T11:27:22;10.50;99.90
54126;DHT22;40360;52.992;6.796;2024-03-22T11:29:49;10.50;99.90
54126;DHT22;40360;52.992;6.796;2024-03-22T11:32:17;10.50;99.90
54126;DHT22;40360;52.992;6.796;2024-03-22T11:34:44;10.50;99.90
54126;DHT22;40360;52.992;6.796;2024-03-22T11:37:13;10.50;99.90
54126;DHT22;40360;52.992;6.796;2024-03-22T11:39:40;10.50;99.90
54126;DHT22;40360;52.992;6.796;2024-03-22T11:42:09;10.50;99.90
54126;DHT22;40360;52.992;6.796;2024-03-22T11:44:37;10.50;99.90
54126;DHT22;40360;52.992;6.796;2024-03-22T11:47:06;10.50;99.90
54126;DHT22;40360;52.992;6.796;2024-03-22T11:49:33;10.40;99.90
54126;DHT22;40360;52.992;6.796;2024-03-22T11:52:00;10.50;99.90
54126;DHT22;40360;52.992;6.796;2024-03-22T11:54:26;10.50;99.90
54126;DHT22;40360;52.992;6.796;2024-03-22T11:56:55;10.60;99.90
54126;DHT22;40360;52.992;6.796;2024-03-22T11:59:22;10.60;99.90
54126;DHT22;40360;52.992;6.796;2024-03-22T12:01:49;10.50;99.90
54126;DHT22;40360;52.992;6.796;2024-03-22T12:04:17;10.50;99.90
54126;DHT22;40360;52.992;6.796;2024-03-22T12:06:45;10.50;99.90
54126;DHT22;40360;52.992;6.796;2024-03-22T12:09:14;10.50;99.90
54126;DHT22;40360;52.992;6.796;2024-03-22T12:11:42;10.60;99.90
54126;DHT22;40360;52.992;6.796;2024-03-22T12:14:10;10.50;99.90
54126;DHT22;40360;52.992;6.796;2024-03-22T12:16:50;10.60;99.90
54126;DHT22;40360;52.992;6.796;2024-03-22T12:19:20;10.50;99.90
54126;DHT22;40360;52.992;6.796;2024-03-22T12:21:47;10.50;99.90
54126;DHT22;40360;52.992;6.796;2024-03-22T12:24:14;10.50;99.90
54126;DHT22;40360;52.992;6.796;2024-03-22T12:26:40;10.40;99.90
54126;DHT22;40360;52.992;6.796;2024-03-22T12:29:08;10.40;99.90
54126;DHT22;40360;52.992;6.796;2024-03-22T12:31:39;10.40;99.90
54126;DHT22;40360;52.992;6.796;2024-03-22T12:34:07;10.40;99.90
54126;DHT22;40360;52.992;6.796;2024-03-22T12:36:40;10.50;99.90
54126;DHT22;40360;52.992;6.796;2024-03-22T12:39:10;10.50;99.90
54126;DHT22;40360;52.992;6.796;2024-03-22T12:41:38;10.40;99.90
54126;DHT22;40360;52.992;6.796;2024-03-22T12:44:04;10.30;99.90
54126;DHT22;40360;52.992;6.796;2024-03-22T12:46:30;10.30;99.90
54126;DHT22;40360;52.992;6.796;2024-03-22T12:48:58;10.30;99.90
54126;DHT22;40360;52.992;6.796;2024-03-22T12:51:24;10.30;99.90
54126;DHT22;40360;52.992;6.796;2024-03-22T12:53:51;10.30;99.90
54126;DHT22;40360;52.992;6.796;2024-03-22T12:56:22;10.30;99.90
54126;DHT22;40360;52.992;6.796;2024-03-22T12:58:52;10.30;99.90
54126;DHT22;40360;52.992;6.796;2024-03-22T13:01:20;10.30;99.90
54126;DHT22;40360;52.992;6.796;2024-03-22T13:03:47;10.30;99.90
54126;DHT22;40360;52.992;6.796;2024-03-22T13:06:17;10.30;99.90
54126;DHT22;40360;52.992;6.796;2024-03-22T13:08:49;10.30;99.90
54126;DHT22;40360;52.992;6.796;2024-03-22T13:11:16;10.30;99.90
54126;DHT22;40360;52.992;6.796;2024-03-22T13:13:43;10.40;99.90
54126;DHT22;40360;52.992;6.796;2024-03-22T13:16:11;10.30;99.90
54126;DHT22;40360;52.992;6.796;2024-03-22T13:18:44;10.40;99.90
54126;DHT22;40360;52.992;6.796;2024-03-22T13:21:14;10.40;99.90
54126;DHT22;40360;52.992;6.796;2024-03-22T13:23:42;10.40;99.90
54126;DHT22;40360;52.992;6.796;2024-03-22T13:26:12;10.40;99.90
54126;DHT22;40360;52.992;6.796;2024-03-22T13:28:42;10.40;99.90
54126;DHT22;40360;52.992;6.796;2024-03-22T13:31:09;10.50;99.90
54126;DHT22;40360;52.992;6.796;2024-03-22T13:33:38;10.50;99.90
54126;DHT22;40360;52.992;6.796;2024-03-22T13:36:10;10.50;99.90
54126;DHT22;40360;52.992;6.796;2024-03-22T13:38:38;10.50;99.90
54126;DHT22;40360;52.992;6.796;2024-03-22T13:41:05;10.50;99.90
54126;DHT22;40360;52.992;6.796;2024-03-22T13:43:32;10.50;99.90
54126;DHT22;40360;52.992;6.796;2024-03-22T13:46:00;10.40;99.90
54126;DHT22;40360;52.992;6.796;2024-03-22T13:48:29;10.40;99.90
54126;DHT22;40360;52.992;6.796;2024-03-22T13:50:56;10.40;99.90
54126;DHT22;40360;52.992;6.796;2024-03-22T13:53:23;10.40;99.90
54126;DHT22;40360;52.992;6.796;2024-03-22T13:55:50;10.40;99.90
54126;DHT22;40360;52.992;6.796;2024-03-22T13:58:19;10.40;99.90
54126;DHT22;40360;52.992;6.796;2024-03-22T14:00:48;10.40;99.90
54126;DHT22;40360;52.992;6.796;2024-03-22T14:03:21;10.30;99.90
54126;DHT22;40360;52.992;6.796;2024-03-22T14:05:52;10.30;99.90
54126;DHT22;40360;52.992;6.796;2024-03-22T14:08:19;10.30;99.90
54126;DHT22;40360;52.992;6.796;2024-03-22T14:10:49;10.30;99.90
54126;DHT22;40360;52.992;6.796;2024-03-22T14:13:14;10.30;99.90
54126;DHT22;40360;52.992;6.796;2024-03-22T14:15:41;10.30;99.90
54126;DHT22;40360;52.992;6.796;2024-03-22T14:18:06;10.30;99.90
54126;DHT22;40360;52.992;6.796;2024-03-22T14:20:33;10.30;99.90
54126;DHT22;40360;52.992;6.796;2024-03-22T14:23:01;10.40;99.90
54126;DHT22;40360;52.992;6.796;2024-03-22T14:25:37;10.40;99.90
54126;DHT22;40360;52.992;6.796;2024-03-22T14:28:05;10.40;99.90
54126;DHT22;40360;52.992;6.796;2024-03-22T14:30:32;10.40;99.90
54126;DHT22;40360;52.992;6.796;2024-03-22T14:32:59;10.40;99.90
54126;DHT22;40360;52.992;6.796;2024-03-22T14:35:29;10.40;99.90
54126;DHT22;40360;52.992;6.796;2024-03-22T14:37:57;10.40;99.90
54126;DHT22;40360;52.992;6.796;2024-03-22T14:40:23;10.40;99.90
54126;DHT22;40360;52.992;6.796;2024-03-22T14:42:51;10.40;99.90
54126;DHT22;40360;52.992;6.796;2024-03-22T14:45:21;10.40;99.90
54126;DHT22;40360;52.992;6.796;2024-03-22T14:48:00;10.30;99.90
54126;DHT22;40360;52.992;6.796;2024-03-22T14:50:35;10.30;99.90
54126;DHT22;40360;52.992;6.796;2024-03-22T14:53:07;10.40;99.90
54126;DHT22;40360;52.992;6.796;2024-03-22T14:55:38;10.30;99.90
54126;DHT22;40360;52.992;6.796;2024-03-22T14:58:06;10.30;99.90
54126;DHT22;40360;52.992;6.796;2024-03-22T15:00:34;10.30;99.90
54126;DHT22;40360;52.992;6.796;2024-03-22T15:03:01;10.30;99.90
54126;DHT22;40360;52.992;6.796;2024-03-22T15:05:32;10.20;99.90
54126;DHT22;40360;52.992;6.796;2024-03-22T15:07:59;10.30;99.90
54126;DHT22;40360;52.992;6.796;2024-03-22T15:10:29;10.20;99.90
54126;DHT22;40360;52.992;6.796;2024-03-22T15:12:57;10.20;99.90
54126;DHT22;40360;52.992;6.796;2024-03-22T15:15:24;10.20;99.90
54126;DHT22;40360;52.992;6.796;2024-03-22T15:17:52;10.20;99.90
54126;DHT22;40360;52.992;6.796;2024-03-22T15:20:19;10.10;99.90
54126;DHT22;40360;52.992;6.796;2024-03-22T15:22:45;10.10;99.90
54126;DHT22;40360;52.992;6.796;2024-03-22T15:25:11;10.10;99.90
54126;DHT22;40360;52.992;6.796;2024-03-22T15:27:37;10.10;99.90
54126;DHT22;40360;52.992;6.796;2024-03-22T15:30:03;10.00;99.90
54126;DHT22;40360;52.992;6.796;2024-03-22T15:32:32;10.00;99.90
54126;DHT22;40360;52.992;6.796;2024-03-22T15:34:59;9.90;99.90
54126;DHT22;40360;52.992;6.796;2024-03-22T15:37:26;10.00;99.90
54126;DHT22;40360;52.992;6.796;2024-03-22T15:39:53;9.90;99.90
54126;DHT22;40360;52.992;6.796;2024-03-22T15:42:20;9.90;99.90
54126;DHT22;40360;52.992;6.796;2024-03-22T15:44:46;9.90;99.90
54126;DHT22;40360;52.992;6.796;2024-03-22T15:47:15;9.90;99.90
54126;DHT22;40360;52.992;6.796;2024-03-22T15:49:44;9.90;99.90
54126;DHT22;40360;52.992;6.796;2024-03-22T15:52:14;9.80;99.90
54126;DHT22;40360;52.992;6.796;2024-03-22T15:54:45;9.80;99.90
54126;DHT22;40360;52.992;6.796;2024-03-22T15:57:15;9.80;99.90
54126;DHT22;40360;52.992;6.796;2024-03-22T15:59:46;9.70;99.90
54126;DHT22;40360;52.992;6.796;2024-03-22T16:02:12;9.80;99.90
54126;DHT22;40360;52.992;6.796;2024-03-22T16:04:38;9.70;99.90